Santa Teresa, NM

6:40 PM MST on December 21, 2014 (GMT -0700)
West El Paso, Texas | Change Station
CLOSE
Current Station
Personal Weather Station
Location: El Paso, TX
Elevation: 3730 ft
Nearby Weather Stations

Elev 3730 ft 31.82 °N, 106.57 °W | Updated 5 minutes ago

Mostly Cloudy
Mostly Cloudy
56.3 °F
Feels Like 56.3 °F
N
5.3
Wind Variable Wind from NNW

Today
High -- | Low -- °F
--% Chance of Precip.
Yesterday
High -- | Low -- °F
Precip. -- in
7:02 AM 5:06 PM
Waning Crescent, 0% visible
Pressure 29.85 in
Visibility 7.0 miles
Clouds Scattered Clouds 22000 ft
Dew Point 30 °F
Humidity 37%
Rainfall 0.00 in
Snow Depth Not available.
UV 0 out of 12
Pollen 8.50 out of 12
Air Quality Not available.
Flu Activity Not available.
METAR KBIF 220058Z AUTO VRB04KT 7SM SCT220 15/M04 A2991 RMK AO2 PK WND 28032/53 SLP107 T01541041 $

More Conditions Fewer Conditions

Pressure 29.85 in
Visibility 7.0 miles
Clouds Scattered Clouds 22000 ft
Dew Point 30 °F
Humidity 37%
Rainfall 0.00 in
Snow Depth Not available.
UV 0 out of 12
Pollen 8.50 out of 12
Air Quality Not available.
Flu Activity Not available.
METAR KBIF 220058Z AUTO VRB04KT 7SM SCT220 15/M04 A2991 RMK AO2 PK WND 28032/53 SLP107 T01541041 $

More Conditions Fewer Conditions

10-Day Weather Forecast

Almanac

Astronomy

Dec. 21, 2014 Rise Set
Actual Time
Civil Twilight
Nautical Twilight
Astronomical Twilight
Moon
Length of Visible Light
Length of Day
Tomorrow will be .
, % of the Moon is Illuminated

Today's Extremes

State Highs State Lows

Community

WunderPhotos

Upload Photos

1,779,519 photos uploaded!

WunderBlogs® & News

Nearby

Air Quality

  Air Quality AQ Index Pollutant
Not available.

Snow Depth

Station Depth Elevation

Earthquake Activity

City Distance Mag. Time & Date
Minimum magnitude displayed is 2.5.

Coastal Water Temperatures

Place Temperature

Nearby Weather Stations